Time;durP1;ratioP1;P1;durP2;ratioP2;P2;SDS_P1;SDS_P2;PMS_P1;PMS_P2;Temp;Humidity;BMP_temperature;BMP_pressure;BME280_temperature;BME280_humidity;BME280_pressure;Samples;Min_cycle;Max_cycle;Signal;HPM_P1;HPM_P2
2022/11/28 00:01:15;;;;;;;11.73;6.53;;;;;;;5.25;85.77;99214.56;5118500;28;20047;-94
2022/11/28 00:03:41;;;;;;;10.93;5.82;;;;;;;5.40;85.90;99242.72;5118458;28;20068;-93
2022/11/28 00:06:07;;;;;;;12.68;7.18;;;;;;;5.18;85.93;99202.22;5118074;28;20035;-94
2022/11/28 00:08:33;;;;;;;11.23;6.38;;;;;;;5.33;86.18;99225.09;5120153;27;20050;-94
2022/11/28 00:11:02;;;;;;;10.55;6.07;;;;;;;5.16;86.23;99201.34;5122824;27;20071;-94
2022/11/28 00:13:29;;;;;;;11.97;6.20;;;;;;;5.37;86.31;99237.41;5122139;27;20042;-94
2022/11/28 00:15:56;;;;;;;11.52;5.72;;;;;;;5.37;86.29;99212.81;5122554;27;20042;-95
2022/11/28 00:18:22;;;;;;;9.73;5.90;;;;;;;5.55;85.59;99213.72;5123124;27;20100;-93
2022/11/28 00:20:48;;;;;;;8.60;5.50;;;;;;;5.55;84.92;99189.97;5124012;27;20043;-94
2022/11/28 00:23:14;;;;;;;10.43;5.25;;;;;;;5.58;84.66;99172.38;5123932;27;20377;-94
2022/11/28 00:25:40;;;;;;;10.35;5.28;;;;;;;5.84;83.71;99209.31;5121020;28;20051;-95
2022/11/28 00:28:06;;;;;;;9.63;5.22;;;;;;;5.65;84.02;99175.00;5119013;28;20143;-95
2022/11/28 00:30:36;;;;;;;10.38;5.20;;;;;;;5.72;83.14;99178.50;5115866;27;20050;-95
2022/11/28 00:33:03;;;;;;;9.63;5.15;;;;;;;5.89;82.84;99189.06;5122155;27;20039;-96
2022/11/28 00:35:29;;;;;;;8.02;4.78;;;;;;;5.86;82.47;99200.50;5122890;27;20092;-95
2022/11/28 00:37:55;;;;;;;7.15;4.32;;;;;;;5.90;82.43;99206.66;5123013;27;20039;-95
2022/11/28 00:40:21;;;;;;;9.85;4.55;;;;;;;5.64;82.42;99169.72;5124231;27;20051;-96
2022/11/28 00:42:47;;;;;;;8.55;4.53;;;;;;;5.56;82.99;99178.53;5123869;27;20059;-95
2022/11/28 00:45:14;;;;;;;10.77;5.00;;;;;;;5.45;83.55;99169.75;5123830;27;20066;-95
2022/11/28 00:47:41;;;;;;;7.32;4.72;;;;;;;5.54;84.08;99195.22;5123523;27;20035;-96
2022/11/28 00:50:08;;;;;;;14.63;6.07;;;;;;;5.39;83.41;99171.50;5123468;27;20047;-96
2022/11/28 00:52:34;;;;;;;9.10;5.00;;;;;;;5.50;82.91;99190.84;5118741;27;20040;-95
2022/11/28 00:55:00;;;;;;;9.93;4.97;;;;;;;5.31;83.78;99174.13;5122817;27;20102;-94
2022/11/28 00:57:26;;;;;;;9.90;4.75;;;;;;;5.29;83.76;99170.59;5122195;27;20050;-93
2022/11/28 00:59:52;;;;;;;9.35;5.10;;;;;;;5.20;84.72;99166.19;5122452;27;20039;-93
2022/11/28 01:02:20;;;;;;;8.73;4.43;;;;;;;5.37;84.20;99194.34;5122815;27;20035;-95
2022/11/28 01:04:48;;;;;;;8.48;4.82;;;;;;;5.47;82.83;99180.28;5122790;27;20071;-95
2022/11/28 01:07:14;;;;;;;8.52;4.53;;;;;;;5.52;81.78;99160.06;5121814;27;20070;-96
2022/11/28 01:09:39;;;;;;;8.65;4.30;;;;;;;5.56;82.00;99169.75;5122009;27;20062;-94
2022/11/28 01:12:06;;;;;;;5.90;4.25;;;;;;;5.56;82.28;99185.56;5140148;27;20091;-95
2022/11/28 01:14:32;;;;;;;11.85;6.57;;;;;;;5.35;85.35;99181.16;5123371;27;20514;-96
2022/11/28 01:16:57;;;;;;;17.20;10.10;;;;;;;5.13;85.56;99182.91;5123446;27;20039;-96
2022/11/28 01:19:23;;;;;;;15.40;9.30;;;;;;;4.89;86.54;99187.25;5114817;28;20047;-95
2022/11/28 01:21:51;;;;;;;16.95;10.40;;;;;;;4.52;86.62;99154.66;5120673;27;20094;-95
2022/11/28 01:24:17;;;;;;;17.38;9.63;;;;;;;4.24;88.29;99154.53;5124086;27;20130;-95
2022/11/28 01:26:43;;;;;;;17.23;9.00;;;;;;;4.12;89.73;99165.03;5122415;27;20062;-93
2022/11/28 01:29:09;;;;;;;16.30;8.35;;;;;;;3.76;90.87;99157.78;5123074;27;20043;-95
2022/11/28 01:31:36;;;;;;;15.95;9.00;;;;;;;3.48;92.98;99160.22;5122812;27;20496;-95
2022/11/28 01:34:02;;;;;;;14.52;7.93;;;;;;;3.21;95.29;99140.75;5123629;27;20043;-94
2022/11/28 01:36:28;;;;;;;11.57;6.95;;;;;;;3.14;95.84;99152.03;5122826;27;20043;-95
2022/11/28 01:38:55;;;;;;;11.70;6.47;;;;;;;3.13;98.35;99152.91;5120535;27;20496;-93
2022/11/28 01:41:23;;;;;;;9.63;5.72;;;;;;;2.97;98.34;99143.13;5121517;27;20036;-95
2022/11/28 01:44:02;;;;;;;11.35;6.28;;;;;;;2.97;99.30;99159.78;5121855;27;20047;-94
2022/11/28 01:46:29;;;;;;;9.70;5.77;;;;;;;2.89;99.73;99137.81;5122334;27;20560;-93
2022/11/28 01:48:58;;;;;;;10.73;5.43;;;;;;;2.86;99.51;99146.56;5122851;27;20043;-96
2022/11/28 01:51:24;;;;;;;;;;;;;;;2.99;99.93;99172.91;5115798;28;20047;-95
2022/11/28 01:53:50;;;;;;;12.30;6.45;;;;;;;2.76;100.00;99146.44;5118653;27;19949;-94
2022/11/28 01:56:20;;;;;;;13.57;7.65;;;;;;;2.66;100.00;99140.19;5119946;27;20150;-96
2022/11/28 01:58:51;;;;;;;13.13;7.57;;;;;;;2.62;100.00;99152.44;5121569;27;20039;-93
2022/11/28 02:01:18;;;;;;;13.27;7.28;;;;;;;2.66;100.00;99154.19;5117441;27;20060;-95
2022/11/28 02:03:45;;;;;;;14.32;7.85;;;;;;;2.66;100.00;99145.44;5121264;27;20526;-94
2022/11/28 02:06:15;;;;;;;14.57;7.35;;;;;;;2.68;100.00;99139.34;5121094;27;20039;-94
2022/11/28 02:08:41;;;;;;;11.25;5.88;;;;;;;2.73;100.00;99146.41;5120007;27;20125;-94
2022/11/28 02:11:39;;;;;;;10.30;5.47;;;;;;;2.78;100.00;99142.09;5120371;27;20534;-94
2022/11/28 02:14:14;;;;;;;10.98;6.00;;;;;;;2.68;100.00;99148.97;5119980;27;20069;-94
2022/11/28 02:16:56;;;;;;;10.57;5.75;;;;;;;2.60;100.00;99150.63;5121133;27;20043;-96
2022/11/28 02:20:03;;;;;;;9.82;5.53;;;;;;;2.55;100.00;99128.72;5121192;27;20043;-96
2022/11/28 02:22:35;;;;;;;15.95;7.78;;;;;;;2.55;100.00;99113.84;5113083;27;20066;-92
2022/11/28 02:25:25;;;;;;;15.70;7.68;;;;;;;2.70;100.00;99122.75;5122393;27;20564;-95
2022/11/28 02:28:23;;;;;;;17.88;9.88;;;;;;;2.52;100.00;99105.06;5118265;27;20046;-93
2022/11/28 02:30:56;;;;;;;16.02;8.88;;;;;;;2.71;100.00;99109.63;5112714;27;20072;-93
2022/11/28 02:33:28;;;;;;;14.52;8.57;;;;;;;2.81;100.00;99103.59;5123131;27;20039;-95
2022/11/28 02:36:04;;;;;;;18.08;8.77;;;;;;;3.00;100.00;99096.75;5121958;27;20058;-94
2022/11/28 02:38:43;;;;;;;11.90;7.32;;;;;;;3.24;100.00;99103.97;5116198;28;20446;-95
2022/11/28 02:41:20;;;;;;;16.70;8.30;;;;;;;3.36;100.00;99112.78;5114016;27;20039;-94
2022/11/28 02:43:55;;;;;;;13.57;7.38;;;;;;;3.30;100.00;99082.09;5121801;27;20039;-94
2022/11/28 02:46:27;;;;;;;16.65;8.40;;;;;;;3.29;100.00;99099.59;5119473;27;20081;-94
2022/11/28 02:48:58;;;;;;;12.93;7.35;;;;;;;3.29;100.00;99096.09;5122073;27;20044;-94
2022/11/28 02:51:30;;;;;;;11.75;7.10;;;;;;;3.43;100.00;99107.59;5114447;27;20514;-94
2022/11/28 02:53:57;;;;;;;14.23;7.45;;;;;;;3.49;100.00;99120.81;5118554;27;20050;-94
2022/11/28 02:56:24;;;;;;;13.07;7.32;;;;;;;3.33;100.00;99097.88;5118328;27;20881;-92
2022/11/28 02:58:50;;;;;;;14.40;6.47;;;;;;;3.43;100.00;99104.97;5118523;27;20063;-94
2022/11/28 03:01:21;;;;;;;13.70;7.20;;;;;;;3.39;99.20;99116.34;5119989;27;20043;-96
2022/11/28 03:04:01;;;;;;;13.32;7.32;;;;;;;3.05;99.93;99081.91;5121979;27;20108;-95
2022/11/28 03:06:40;;;;;;;12.00;6.85;;;;;;;2.95;100.00;99098.47;5120598;27;20039;-94
2022/11/28 03:09:30;;;;;;;14.10;7.82;;;;;;;2.85;100.00;99100.13;5120056;27;20129;-93
2022/11/28 03:12:14;;;;;;;13.25;7.65;;;;;;;2.85;100.00;99115.88;5099379;28;20040;-96
2022/11/28 03:14:49;;;;;;;13.90;6.47;;;;;;;2.64;100.00;99086.78;5119890;27;20043;-94
2022/11/28 03:17:20;;;;;;;14.90;6.93;;;;;;;2.54;100.00;99090.19;5104007;27;20039;-94
2022/11/28 03:19:56;;;;;;;14.95;7.13;;;;;;;2.52;100.00;99087.56;5121759;28;20493;-96
2022/11/28 03:22:29;;;;;;;13.75;6.85;;;;;;;2.58;100.00;99106.00;5121257;28;20496;-95
2022/11/28 03:25:02;;;;;;;15.18;7.18;;;;;;;2.48;100.00;99093.63;5118821;28;20049;-94
2022/11/28 03:27:34;;;;;;;14.18;8.15;;;;;;;2.25;100.00;99081.13;5122596;28;20031;-96
2022/11/28 03:30:05;;;;;;;17.23;8.27;;;;;;;2.26;100.00;99075.03;5121371;28;20066;-94
2022/11/28 03:32:34;;;;;;;15.05;7.68;;;;;;;2.26;100.00;99106.53;5121435;28;20043;-95
2022/11/28 03:35:09;;;;;;;13.85;8.13;;;;;;;2.03;100.00;99064.28;5117231;28;20046;-95
2022/11/28 03:37:39;;;;;;;12.80;7.40;;;;;;;2.01;100.00;99070.38;5121071;28;20039;-95
2022/11/28 03:40:11;;;;;;;14.38;8.13;;;;;;;2.03;100.00;99073.88;5121548;28;20043;-95
2022/11/28 03:42:42;;;;;;;13.05;7.55;;;;;;;1.96;100.00;99077.31;5121540;28;20043;-93
2022/11/28 03:45:12;;;;;;;15.60;8.00;;;;;;;1.92;100.00;99071.13;5125294;27;20043;-95
2022/11/28 03:47:43;;;;;;;13.40;7.40;;;;;;;1.89;100.00;99068.47;5124817;27;20047;-95
2022/11/28 03:50:18;;;;;;;12.73;7.18;;;;;;;1.83;100.00;99066.66;5124203;27;20129;-94
2022/11/28 03:52:49;;;;;;;14.48;7.63;;;;;;;1.90;100.00;99078.09;5123590;27;20040;-95
2022/11/28 03:55:20;;;;;;;18.80;9.15;;;;;;;1.90;100.00;99058.88;5125303;27;20088;-95
2022/11/28 03:57:50;;;;;;;16.45;8.85;;;;;;;1.82;100.00;99059.66;5125822;27;20047;-95
2022/11/28 04:00:17;;;;;;;16.02;8.38;;;;;;;1.84;100.00;99060.56;5124104;27;20074;-96
2022/11/28 04:02:51;;;;;;;18.33;9.73;;;;;;;1.93;100.00;99066.75;5125438;27;20500;-96
2022/11/28 04:05:26;;;;;;;14.90;8.23;;;;;;;1.90;100.00;99085.97;5124600;27;20099;-96
2022/11/28 04:07:57;;;;;;;16.10;10.05;;;;;;;1.88;100.00;99085.06;5126081;27;20488;-94
2022/11/28 04:10:30;;;;;;;16.23;8.85;;;;;;;1.70;100.00;99067.34;5125510;27;20036;-95
2022/11/28 04:13:01;;;;;;;18.33;8.80;;;;;;;1.84;100.00;99107.75;5124976;27;20049;-94
2022/11/28 04:15:36;;;;;;;19.85;9.65;;;;;;;1.79;100.00;99090.19;5123939;27;20502;-95
2022/11/28 04:18:12;;;;;;;19.05;9.32;;;;;;;1.62;100.00;99069.00;5124178;27;20047;-94
2022/11/28 04:20:47;;;;;;;14.63;8.30;;;;;;;1.66;100.00;99073.41;5121400;27;20142;-96
2022/11/28 04:23:17;;;;;;;18.65;9.18;;;;;;;1.82;100.00;99087.59;5123123;27;20365;-94
2022/11/28 04:25:45;;;;;;;;;;;;;;;1.91;100.00;99110.44;5121399;28;20039;-96
2022/11/28 04:28:17;;;;;;;20.83;9.73;;;;;;;1.72;100.00;99083.13;5122251;28;19979;-95
2022/11/28 04:30:46;;;;;;;19.85;9.50;;;;;;;1.66;100.00;99072.56;5139660;27;20074;-96
2022/11/28 04:33:16;;;;;;;19.48;9.35;;;;;;;1.60;100.00;99071.59;5124971;27;20043;-96
2022/11/28 04:35:48;;;;;;;21.45;9.90;;;;;;;1.58;100.00;99078.56;5124352;27;20052;-96
2022/11/28 04:38:14;;;;;;;19.63;10.65;;;;;;;1.50;100.00;99064.47;5124802;27;20126;-93
2022/11/28 04:40:46;;;;;;;19.25;10.07;;;;;;;1.58;100.00;99085.53;5124442;27;20050;-93
2022/11/28 04:43:17;;;;;;;23.98;10.45;;;;;;;1.41;100.00;99052.13;5122972;27;20043;-95
2022/11/28 04:45:46;;;;;;;21.83;11.40;;;;;;;1.53;100.00;99087.22;5113902;28;20073;-96
2022/11/28 04:48:12;;;;;;;;;;;;;;;1.54;100.00;99100.34;5119612;27;20495;-95
2022/11/28 04:50:47;;;;;;;23.67;10.88;;;;;;;1.55;100.00;99090.75;5121048;27;19962;-95
2022/11/28 04:53:21;;;;;;;21.23;11.20;;;;;;;1.34;100.00;99057.25;5108337;28;20056;-96
2022/11/28 04:55:54;;;;;;;18.90;10.20;;;;;;;1.35;100.00;99074.75;5117926;28;20047;-95
2022/11/28 04:58:24;;;;;;;21.90;11.30;;;;;;;1.20;100.00;99051.81;5114928;28;20050;-94
2022/11/28 05:00:53;;;;;;;18.65;9.45;;;;;;;1.35;100.00;99067.75;5105769;28;20106;-95
2022/11/28 05:03:20;;;;;;;18.70;9.90;;;;;;;1.35;100.00;99065.13;5108712;27;20042;-94
2022/11/28 05:05:50;;;;;;;16.10;8.95;;;;;;;1.22;100.00;99048.34;5119105;28;20039;-95
2022/11/28 05:08:17;;;;;;;20.27;9.73;;;;;;;1.18;100.00;99037.81;5103188;28;20040;-95
2022/11/28 05:10:44;;;;;;;22.20;9.75;;;;;;;1.32;100.00;99065.06;5102536;28;20047;-95
2022/11/28 05:13:10;;;;;;;24.23;11.10;;;;;;;1.35;100.00;99061.66;5111101;27;20035;-94
2022/11/28 05:15:36;;;;;;;18.45;9.50;;;;;;;1.34;100.00;99050.25;5122827;27;20143;-96
2022/11/28 05:18:01;;;;;;;19.27;10.18;;;;;;;1.43;100.00;99044.25;5121317;27;20123;-95
2022/11/28 05:20:28;;;;;;;15.45;9.05;;;;;;;1.54;100.00;99053.19;5121782;27;20039;-94
2022/11/28 05:22:55;;;;;;;20.83;10.43;;;;;;;1.47;100.00;99064.41;5122116;27;20040;-94
2022/11/28 05:25:21;;;;;;;20.83;10.82;;;;;;;1.39;100.00;99060.84;5121531;27;20047;-95
2022/11/28 05:27:47;;;;;;;17.48;9.32;;;;;;;1.23;100.00;99042.25;5121478;27;20039;-93
2022/11/28 05:30:13;;;;;;;20.80;10.35;;;;;;;1.23;100.00;99054.47;5121294;27;20399;-95
2022/11/28 05:32:39;;;;;;;19.52;9.85;;;;;;;1.33;100.00;99073.84;5121129;27;20076;-95
2022/11/28 05:35:06;;;;;;;22.27;10.85;;;;;;;1.30;100.00;99071.16;5119866;27;20059;-94
2022/11/28 05:37:32;;;;;;;21.48;10.57;;;;;;;1.34;100.00;99080.81;5119642;27;20043;-94
2022/11/28 05:40:00;;;;;;;17.60;9.52;;;;;;;1.18;100.00;99064.00;5113887;28;20136;-94
2022/11/28 05:42:27;;;;;;;20.67;10.48;;;;;;;1.29;100.00;99083.38;5113672;27;20218;-95
2022/11/28 05:44:53;;;;;;;20.83;10.35;;;;;;;1.20;100.00;99076.25;5119226;27;20045;-94
2022/11/28 05:47:19;;;;;;;30.25;11.77;;;;;;;1.25;100.00;99071.09;5119072;27;20039;-96
2022/11/28 05:49:46;;;;;;;20.35;8.85;;;;;;;1.14;100.00;99046.47;5119255;27;20488;-96
2022/11/28 05:52:12;;;;;;;24.52;10.63;;;;;;;1.26;100.00;99067.63;5119348;27;20031;-95
2022/11/28 05:54:38;;;;;;;20.50;11.27;;;;;;;1.17;100.00;99063.13;5119717;27;20047;-94
2022/11/28 05:57:06;;;;;;;18.70;10.18;;;;;;;1.23;100.00;99064.94;5120053;27;20067;-96
2022/11/28 05:59:31;;;;;;;22.33;10.85;;;;;;;1.12;100.00;99046.44;5119032;27;20043;-94
2022/11/28 06:01:58;;;;;;;20.83;11.00;;;;;;;1.25;100.00;99059.75;5118260;27;20108;-95
2022/11/28 06:04:23;;;;;;;25.05;11.18;;;;;;;1.33;100.00;99064.22;5109014;27;20615;-94
2022/11/28 06:06:50;;;;;;;25.83;11.70;;;;;;;1.14;100.00;99033.38;5119263;27;20035;-95
2022/11/28 06:09:16;;;;;;;24.00;11.93;;;;;;;1.14;100.00;99026.41;5120443;27;20125;-95
2022/11/28 06:11:42;;;;;;;28.15;12.70;;;;;;;1.12;100.00;99028.13;5119319;27;20043;-93
2022/11/28 06:14:10;;;;;;;25.25;11.82;;;;;;;1.15;100.00;99024.66;5119924;27;20544;-96
2022/11/28 06:16:36;;;;;;;28.77;12.55;;;;;;;1.18;100.00;99027.34;5119989;27;20039;-94
2022/11/28 06:19:04;;;;;;;23.08;11.50;;;;;;;1.30;100.00;99042.34;5121717;27;20519;-95
2022/11/28 06:21:30;;;;;;;21.92;11.75;;;;;;;1.38;100.00;99051.19;5110667;28;20135;-95
2022/11/28 06:23:57;;;;;;;22.88;10.70;;;;;;;1.35;100.00;99041.56;5106745;27;20038;-94
2022/11/28 06:26:24;;;;;;;23.90;11.35;;;;;;;1.35;100.00;99033.69;5092794;28;20081;-95
2022/11/28 06:28:50;;;;;;;32.28;14.52;;;;;;;1.50;100.00;99045.25;5097851;28;20040;-94
2022/11/28 06:31:20;;;;;;;32.63;15.23;;;;;;;1.41;100.00;99035.50;5102141;28;20040;-95
2022/11/28 06:33:46;;;;;;;40.38;17.17;;;;;;;1.40;100.00;99033.75;5099798;28;20047;-95
2022/11/28 06:36:14;;;;;;;25.38;11.80;;;;;;;1.44;100.00;99025.94;5099944;28;20175;-94
2022/11/28 06:38:40;;;;;;;20.17;11.07;;;;;;;1.55;100.00;99033.09;5100116;28;20036;-95
2022/11/28 06:41:07;;;;;;;24.27;11.43;;;;;;;1.47;100.00;99016.38;5096619;28;20040;-95
2022/11/28 06:43:34;;;;;;;26.13;11.45;;;;;;;1.50;100.00;99029.53;5093155;28;20043;-94
2022/11/28 06:45:59;;;;;;;29.13;12.27;;;;;;;1.74;100.00;99053.44;5110364;28;20048;-94
2022/11/28 06:48:27;;;;;;;26.27;12.35;;;;;;;1.61;100.00;99017.44;5093379;28;20036;-94
2022/11/28 06:51:00;;;;;;;23.52;12.90;;;;;;;1.82;100.00;99048.28;5101270;28;20043;-95
2022/11/28 06:53:26;;;;;;;22.63;10.55;;;;;;;1.78;100.00;99025.53;5101954;28;20048;-96
2022/11/28 06:55:51;;;;;;;22.75;11.30;;;;;;;2.01;100.00;99031.03;5102976;28;20043;-96
2022/11/28 06:58:17;;;;;;;23.63;12.45;;;;;;;2.17;100.00;99029.44;5095551;28;20050;-96
2022/11/28 07:00:44;;;;;;;26.00;11.85;;;;;;;2.22;100.00;99017.25;5103884;28;20051;-96
2022/11/28 07:03:11;;;;;;;22.55;12.10;;;;;;;2.27;100.00;99010.31;5104395;28;20047;-96
2022/11/28 07:05:39;;;;;;;24.65;12.63;;;;;;;2.38;100.00;99013.03;5104888;28;20046;-95
2022/11/28 07:08:05;;;;;;;24.08;12.77;;;;;;;2.52;100.00;99019.31;5106543;28;20050;-95
2022/11/28 07:10:31;;;;;;;25.50;11.88;;;;;;;2.68;100.00;99013.31;5101364;28;20105;-96
2022/11/28 07:12:59;;;;;;;26.13;12.85;;;;;;;2.82;100.00;99015.16;5100623;28;20043;-96
2022/11/28 07:15:26;;;;;;;26.67;13.27;;;;;;;2.93;100.00;99016.16;5100736;28;20044;-94
2022/11/28 07:17:53;;;;;;;24.70;11.48;;;;;;;3.06;100.00;99022.38;5099322;28;20044;-94
2022/11/28 07:20:19;;;;;;;24.67;12.43;;;;;;;3.23;100.00;99022.47;5099704;28;20493;-95
2022/11/28 07:22:47;;;;;;;24.13;11.85;;;;;;;3.52;99.64;99024.41;5098388;28;20048;-96
2022/11/28 07:25:14;;;;;;;21.57;10.50;;;;;;;3.22;98.56;99011.06;5101950;28;20052;-95
2022/11/28 07:27:41;;;;;;;20.73;11.07;;;;;;;3.18;98.29;99024.19;5098921;28;20122;-95
2022/11/28 07:30:08;;;;;;;23.35;11.80;;;;;;;3.14;100.00;99017.16;5098269;28;20471;-94
2022/11/28 07:32:34;;;;;;;21.10;10.98;;;;;;;3.41;97.59;99025.22;5100786;28;20043;-95
2022/11/28 07:35:00;;;;;;;27.38;12.18;;;;;;;3.45;97.57;99029.63;5098347;28;20096;-93
2022/11/28 07:37:26;;;;;;;28.77;13.38;;;;;;;3.59;96.66;99041.97;5100611;28;20044;-96
2022/11/28 07:39:53;;;;;;;26.83;12.75;;;;;;;3.56;97.85;99049.84;5102374;28;20050;-96
2022/11/28 07:42:19;;;;;;;23.63;11.70;;;;;;;3.64;98.18;99045.47;5099717;28;20404;-94
2022/11/28 07:44:49;;;;;;;25.52;11.20;;;;;;;3.50;96.27;99008.63;5099218;28;20036;-94
2022/11/28 07:47:15;;;;;;;21.55;11.07;;;;;;;3.78;95.72;99020.13;5098980;28;20510;-95
2022/11/28 07:49:40;;;;;;;22.65;10.93;;;;;;;3.77;94.80;99005.22;5100079;28;20314;-94
2022/11/28 07:52:06;;;;;;;21.33;11.43;;;;;;;3.70;95.66;98999.06;5100557;28;20428;-93
2022/11/28 07:54:32;;;;;;;28.98;10.45;;;;;;;3.91;95.39;98998.25;5099976;28;20407;-94
2022/11/28 07:57:00;;;;;;;25.08;11.20;;;;;;;4.21;93.21;99033.44;5097563;28;20381;-95
2022/11/28 07:59:26;;;;;;;20.63;10.95;;;;;;;3.90;94.57;98995.63;5102828;28;20067;-94
2022/11/28 08:01:52;;;;;;;24.33;11.77;;;;;;;3.96;95.48;99018.44;5102662;28;20046;-94
2022/11/28 08:04:18;;;;;;;20.58;10.38;;;;;;;3.76;97.07;98992.06;5104152;28;20110;-92
2022/11/28 08:06:47;;;;;;;25.23;11.95;;;;;;;3.86;95.90;98993.84;5103489;28;20503;-93
2022/11/28 08:09:13;;;;;;;20.85;10.90;;;;;;;4.08;95.54;99005.34;5104825;28;20051;-94
2022/11/28 08:11:40;;;;;;;24.52;11.32;;;;;;;4.37;95.25;99018.56;5104925;28;20046;-94
2022/11/28 08:14:08;;;;;;;17.35;8.48;;;;;;;4.50;93.21;99008.91;5091354;28;20040;-94
2022/11/28 08:16:35;;;;;;;19.83;9.68;;;;;;;4.63;91.93;98980.84;5082274;28;20044;-93
2022/11/28 08:19:02;;;;;;;22.05;9.63;;;;;;;4.87;90.10;99015.06;5094523;28;20048;-95
2022/11/28 08:21:30;;;;;;;18.77;10.50;;;;;;;4.52;89.82;98975.56;5097363;28;20139;-92
2022/11/28 08:23:59;;;;;;;21.10;10.07;;;;;;;4.63;91.35;98989.63;5101765;28;20032;-95
2022/11/28 08:26:26;;;;;;;22.25;11.20;;;;;;;4.63;91.09;98972.94;5097533;28;20977;-94
2022/11/28 08:28:56;;;;;;;20.83;10.70;;;;;;;5.03;89.79;99009.78;5101917;28;20035;-93
2022/11/28 08:31:37;;;;;;;25.70;11.15;;;;;;;4.96;88.19;98955.34;5103330;28;20103;-93
2022/11/28 08:34:08;;;;;;;22.73;11.30;;;;;;;4.68;89.19;98972.06;5117912;28;20044;-94
2022/11/28 08:36:34;;;;;;;24.80;12.38;;;;;;;4.25;91.32;98953.63;5128135;27;20035;-94
2022/11/28 08:39:03;;;;;;;29.70;12.07;;;;;;;4.19;92.94;98958.88;5127760;27;20065;-94
2022/11/28 08:41:29;;;;;;;22.73;11.85;;;;;;;4.13;93.89;98956.22;5108550;28;20043;-93
2022/11/28 08:43:55;;;;;;;21.73;11.65;;;;;;;4.26;95.04;98957.13;5120324;27;20035;-95
2022/11/28 08:46:22;;;;;;;24.33;12.32;;;;;;;4.29;94.07;98951.84;5125837;27;20070;-91
2022/11/28 08:48:50;;;;;;;28.05;14.15;;;;;;;4.41;93.41;98966.78;5123048;27;20134;-91
2022/11/28 08:51:19;;;;;;;25.60;12.63;;;;;;;4.48;94.53;98981.72;5119862;27;20039;-92
2022/11/28 08:53:45;;;;;;;25.25;12.35;;;;;;;4.70;94.75;98990.50;5103324;27;20534;-93
2022/11/28 08:56:12;;;;;;;24.15;12.90;;;;;;;4.69;94.32;98959.78;5121445;27;20054;-95
2022/11/28 08:58:38;;;;;;;26.50;12.25;;;;;;;4.94;91.29;98971.16;5115263;27;20039;-93
2022/11/28 09:01:13;;;;;;;23.25;11.20;;;;;;;4.74;90.08;98945.69;5123478;27;20051;-94
2022/11/28 09:03:42;;;;;;;23.17;10.77;;;;;;;4.82;89.87;98966.78;5122029;27;20039;-92
2022/11/28 09:06:10;;;;;;;20.80;10.35;;;;;;;4.97;89.43;98980.84;5120387;27;20488;-95
2022/11/28 09:08:36;;;;;;;25.00;11.90;;;;;;;4.73;90.40;98949.22;5120195;27;20043;-95
2022/11/28 09:11:02;;;;;;;22.63;11.45;;;;;;;4.76;91.37;98952.75;5120675;27;20043;-94
2022/11/28 09:13:28;;;;;;;19.65;10.77;;;;;;;5.02;91.60;98963.25;5120839;27;20474;-93
2022/11/28 09:15:54;;;;;;;19.40;10.73;;;;;;;5.20;89.36;98946.50;5120089;27;20078;-93
2022/11/28 09:18:20;;;;;;;26.10;12.52;;;;;;;5.21;88.99;98949.16;5123170;27;20068;-93
2022/11/28 09:20:46;;;;;;;26.73;11.02;;;;;;;5.19;89.45;98944.78;5124542;27;20620;-93
2022/11/28 09:23:14;;;;;;;21.98;11.52;;;;;;;5.15;90.36;98931.56;5123372;27;20049;-93
2022/11/28 09:25:39;;;;;;;22.10;12.23;;;;;;;5.19;91.78;98932.47;5125764;27;20066;-95
2022/11/28 09:28:06;;;;;;;20.20;11.50;;;;;;;5.37;89.89;98917.44;5124669;27;20043;-93
2022/11/28 09:30:32;;;;;;;26.70;11.63;;;;;;;5.68;89.43;98956.03;5125083;27;20059;-94
2022/11/28 09:32:58;;;;;;;25.48;11.73;;;;;;;5.69;88.29;98914.69;5126882;27;20120;-94
2022/11/28 09:35:25;;;;;;;22.38;12.00;;;;;;;5.88;87.27;98912.81;5123511;27;20587;-93
2022/11/28 09:37:51;;;;;;;19.55;10.10;;;;;;;6.18;83.86;98938.19;5123126;27;20035;-94
2022/11/28 09:40:24;;;;;;;24.30;11.75;;;;;;;5.97;84.07;98903.09;5124624;27;20066;-93
2022/11/28 09:42:50;;;;;;;26.10;12.45;;;;;;;6.05;85.07;98900.44;5122172;27;20037;-95
2022/11/28 09:45:18;;;;;;;20.77;10.55;;;;;;;6.11;84.75;98895.06;5123191;27;20134;-93
2022/11/28 09:47:48;;;;;;;30.70;11.48;;;;;;;6.43;83.86;98916.88;5120756;27;20047;-94
2022/11/28 09:50:19;;;;;;;23.02;11.10;;;;;;;6.14;83.91;98896.84;5123752;27;20046;-92
2022/11/28 09:52:53;;;;;;;20.00;11.27;;;;;;;5.96;84.37;98889.91;5117920;27;20099;-94
2022/11/28 09:55:31;;;;;;;22.25;11.35;;;;;;;6.10;84.68;98905.66;5116998;27;20069;-95
2022/11/28 09:58:00;;;;;;;19.25;11.50;;;;;;;6.12;84.26;98875.72;5120967;27;20054;-94
2022/11/28 10:00:33;;;;;;;19.75;10.15;;;;;;;6.35;83.77;98877.28;5123301;27;20098;-94
2022/11/28 10:03:29;;;;;;;22.73;11.82;;;;;;;6.77;83.45;98899.81;5118721;27;20500;-96
2022/11/28 10:06:06;;;;;;;19.95;10.93;;;;;;;6.83;81.75;98872.47;5114439;27;20057;-94
2022/11/28 10:08:49;;;;;;;19.75;9.85;;;;;;;6.95;81.49;98880.25;5122861;27;20523;-93
2022/11/28 10:11:33;;;;;;;19.08;9.85;;;;;;;7.06;80.64;98882.78;5117898;28;20043;-93
2022/11/28 10:14:08;;;;;;;21.15;10.40;;;;;;;7.18;79.71;98856.19;5121905;27;20042;-95
2022/11/28 10:16:45;;;;;;;20.02;10.48;;;;;;;7.32;78.71;98863.09;5115613;27;20361;-95
2022/11/28 10:19:15;;;;;;;21.98;11.52;;;;;;;7.38;79.67;98847.13;5120259;27;20046;-93
2022/11/28 10:21:46;;;;;;;29.08;13.55;;;;;;;7.55;78.06;98862.78;5117343;28;20374;-94
2022/11/28 10:24:16;;;;;;;29.85;14.05;;;;;;;7.63;77.36;98849.44;5114614;28;20097;-95
2022/11/28 10:26:47;;;;;;;21.38;10.68;;;;;;;7.85;73.65;98855.31;5114687;28;20063;-94
2022/11/28 10:29:24;;;;;;;20.00;9.98;;;;;;;7.94;73.50;98864.00;5114641;28;20114;-96
2022/11/28 10:31:53;;;;;;;22.48;10.32;;;;;;;7.86;74.36;98842.06;5110488;28;20047;-94
2022/11/28 10:34:29;;;;;;;34.72;16.15;;;;;;;7.81;72.77;98850.06;5128837;27;20071;-96
2022/11/28 10:37:00;;;;;;;43.60;22.23;;;;;;;7.94;73.64;98865.78;5112827;27;20050;-94
2022/11/28 10:39:26;;;;;;;22.48;11.75;;;;;;;8.12;73.80;98876.06;5114779;28;20534;-96
2022/11/28 10:45:17;;;;;;;23.15;11.77;;;;;;;8.17;70.31;98845.09;5132149;27;20390;-94
2022/11/28 10:48:13;;;;;;;25.02;12.15;;;;;;;8.25;70.77;98860.88;5116414;28;20057;-95
2022/11/28 10:50:49;;;;;;;16.30;8.73;;;;;;;8.48;68.80;98849.94;5115936;28;20043;-95
2022/11/28 10:53:29;;;;;;;20.42;9.25;;;;;;;8.51;68.92;98856.94;5121131;28;20488;-96
2022/11/28 10:56:03;;;;;;;23.23;11.02;;;;;;;8.30;68.45;98829.00;5130065;28;20129;-94
2022/11/28 10:58:37;;;;;;;32.10;16.85;;;;;;;8.47;71.80;98847.28;5116256;28;20471;-96
2022/11/28 11:01:04;;;;;;;33.90;16.23;;;;;;;8.36;74.03;98816.50;5117181;28;20050;-96
2022/11/28 11:03:34;;;;;;;26.20;12.25;;;;;;;8.45;73.18;98826.09;5116845;28;20088;-95
2022/11/28 11:06:01;;;;;;;26.80;14.18;;;;;;;8.45;73.87;98812.00;5122864;28;20063;-95
2022/11/28 11:08:35;;;;;;;37.17;17.05;;;;;;;8.59;73.25;98816.16;5114228;28;20047;-94
2022/11/28 11:11:05;;;;;;;37.33;18.95;;;;;;;8.62;72.48;98813.44;5114391;28;20500;-95
2022/11/28 11:13:33;;;;;;;35.95;17.58;;;;;;;8.72;73.21;98805.28;5113841;28;20044;-95
2022/11/28 11:16:01;;;;;;;37.08;18.80;;;;;;;8.79;72.73;98801.66;5114228;28;20412;-95
2022/11/28 11:18:33;;;;;;;30.70;16.20;;;;;;;8.81;72.40;98803.34;5114106;28;20086;-94
2022/11/28 11:21:08;;;;;;;35.95;14.90;;;;;;;8.94;72.39;98816.38;5115013;28;20492;-95
2022/11/28 11:23:35;;;;;;;28.42;14.75;;;;;;;8.73;72.39;98786.72;5116517;28;20096;-95
2022/11/28 11:26:01;;;;;;;33.38;16.90;;;;;;;8.74;72.86;98780.53;5119889;28;20043;-94
2022/11/28 11:28:38;;;;;;;37.00;19.40;;;;;;;8.81;72.39;98783.94;5119908;28;20351;-95
2022/11/28 11:31:13;;;;;;;32.10;17.75;;;;;;;8.78;72.62;98768.97;5122096;28;20054;-94
2022/11/28 11:33:41;;;;;;;32.42;17.48;;;;;;;8.89;72.71;98778.47;5127074;28;20065;-95
2022/11/28 11:36:24;;;;;;;34.88;17.52;;;;;;;8.93;73.05;98782.78;5119815;28;20051;-94
2022/11/28 11:38:51;;;;;;;32.15;16.83;;;;;;;8.85;72.64;98759.09;5122574;28;20043;-95
2022/11/28 11:41:28;;;;;;;38.78;19.05;;;;;;;8.85;74.00;98756.44;5122831;28;20100;-95